createdAt,value
2022-08-25T00:02:19.632Z,100821.09
2022-08-25T00:04:53.802Z,100822.81
2022-08-25T00:07:21.728Z,100821.97
2022-08-25T00:09:49.475Z,100816.47
2022-08-25T00:12:17.222Z,100820.06
2022-08-25T00:14:44.993Z,100815.59
2022-08-25T00:17:12.733Z,100811.84
2022-08-25T00:19:40.516Z,100820.25
2022-08-25T00:22:08.231Z,100811.19
2022-08-25T00:24:35.941Z,100809.28
2022-08-25T00:27:04.012Z,100808.44
2022-08-25T00:29:31.793Z,100808.44
2022-08-25T00:31:59.544Z,100811.19
2022-08-25T00:34:27.311Z,100806.75
2022-08-25T00:36:55.048Z,100806.53
2022-08-25T00:39:22.771Z,100805.69
2022-08-25T00:41:50.515Z,100807.59
2022-08-25T00:44:18.898Z,100816.66
2022-08-25T00:46:47.179Z,100808.44
2022-08-25T00:49:24.625Z,100811.19
2022-08-25T00:51:53.280Z,100814.13
2022-08-25T00:54:21.059Z,100815.00
2022-08-25T00:56:48.842Z,100816.66
2022-08-25T00:59:16.582Z,100815.00
2022-08-25T01:01:44.365Z,100815.84
2022-08-25T01:04:12.579Z,100817.72
2022-08-25T01:06:40.328Z,100816.03
2022-08-25T01:09:08.165Z,100814.13
2022-08-25T01:11:35.974Z,100815.00
2022-08-25T01:14:06.508Z,100816.84
2022-08-25T01:16:34.444Z,100812.44
2022-08-25T01:19:02.147Z,100811.59
2022-08-25T01:21:29.854Z,100800.41
2022-08-25T01:23:58.249Z,100802.31
2022-08-25T01:26:30.135Z,100798.72
2022-08-25T01:29:15.611Z,100795.97
2022-08-25T01:31:43.335Z,100785.19
2022-08-25T01:34:12.295Z,100790.69
2022-08-25T01:36:40.080Z,100786.06
2022-08-25T01:39:07.817Z,100786.91
2022-08-25T01:41:35.475Z,100785.19
2022-08-25T01:44:03.259Z,100787.94
2022-08-25T01:46:31.111Z,100785.84
2022-08-25T01:48:58.939Z,100786.91
2022-08-25T01:51:26.656Z,100781.44
2022-08-25T01:53:54.408Z,100786.91
2022-08-25T01:56:22.122Z,100786.06
2022-08-25T01:58:50.021Z,100789.66
2022-08-25T02:01:17.897Z,100784.19
2022-08-25T02:03:46.239Z,100781.44
2022-08-25T02:06:14.193Z,100792.41
2022-08-25T02:08:41.918Z,100793.25
2022-08-25T02:11:09.887Z,100795.34
2022-08-25T02:13:37.600Z,100790.69
2022-08-25T02:16:05.338Z,100792.41
2022-08-25T02:18:33.066Z,100787.94
2022-08-25T02:21:00.826Z,100786.25
2022-08-25T02:23:28.615Z,100792.59
2022-08-25T02:25:57.345Z,100793.44
2022-08-25T02:28:25.050Z,100787.09
2022-08-25T02:30:53.273Z,100782.47
2022-08-25T02:33:29.213Z,100782.47
2022-08-25T02:35:57.015Z,100778.03
2022-08-25T02:38:25.097Z,100778.03
2022-08-25T02:40:52.816Z,100775.31
2022-08-25T02:43:20.564Z,100769.81
2022-08-25T02:45:48.304Z,100767.91
2022-08-25T02:48:16.066Z,100773.41
2022-08-25T02:50:43.910Z,100764.34
2022-08-25T02:53:11.718Z,100758.84
2022-08-25T02:55:40.843Z,100755.25
2022-08-25T02:58:09.151Z,100757.78
2022-08-25T03:00:36.877Z,100749.78
2022-08-25T03:03:04.618Z,100758.84
2022-08-25T03:05:34.056Z,100762.66
2022-08-25T03:08:01.804Z,100760.75
2022-08-25T03:10:29.586Z,100765.38
2022-08-25T03:12:57.328Z,100762.44
2022-08-25T03:15:25.669Z,100753.56
2022-08-25T03:17:53.638Z,100767.25
2022-08-25T03:20:21.384Z,100765.38
2022-08-25T03:22:49.096Z,100767.06
2022-08-25T03:25:33.561Z,100770.88
2022-08-25T03:28:01.401Z,100763.69
2022-08-25T03:30:29.465Z,100770.88
2022-08-25T03:32:57.341Z,100769.16
2022-08-25T03:35:25.158Z,100765.59
2022-08-25T03:37:53.057Z,100770.00
2022-08-25T03:40:21.525Z,100764.53
2022-08-25T03:42:49.391Z,100771.91
2022-08-25T03:45:17.427Z,100757.34
2022-08-25T03:47:45.289Z,100761.78
2022-08-25T03:50:13.134Z,100754.63
2022-08-25T03:52:42.777Z,100752.72
2022-08-25T03:55:10.871Z,100759.25
2022-08-25T03:57:38.707Z,100757.34
2022-08-25T04:00:06.494Z,100754.63
2022-08-25T04:02:34.745Z,100758.19
2022-08-25T04:05:02.514Z,100754.44
2022-08-25T04:07:30.594Z,100751.69
2022-08-25T04:09:58.334Z,100751.69
2022-08-25T04:12:26.088Z,100759.03
2022-08-25T04:14:53.817Z,100753.56
2022-08-25T04:17:21.915Z,100755.44
2022-08-25T04:19:50.849Z,100753.56
2022-08-25T04:22:18.594Z,100753.56
2022-08-25T04:24:46.297Z,100763.69
2022-08-25T04:27:13.961Z,100759.91
2022-08-25T04:29:41.709Z,100762.66
2022-08-25T04:32:09.525Z,100755.44
2022-08-25T04:34:37.341Z,100756.28
2022-08-25T04:37:06.334Z,100764.53
2022-08-25T04:39:34.208Z,100766.41
2022-08-25T04:42:01.963Z,100762.00
2022-08-25T04:44:29.711Z,100758.19
2022-08-25T04:46:57.436Z,100762.00
2022-08-25T04:49:25.179Z,100763.69
2022-08-25T04:51:52.931Z,100765.59
2022-08-25T04:54:22.244Z,100765.38
2022-08-25T04:56:50.030Z,100767.25
2022-08-25T04:59:17.850Z,100763.69
2022-08-25T05:01:47.004Z,100767.47
2022-08-25T05:04:28.125Z,100760.94
2022-08-25T05:06:56.408Z,100757.34
2022-08-25T05:09:25.058Z,100759.25
2022-08-25T05:11:53.078Z,100755.44
2022-08-25T05:14:26.516Z,100759.03
2022-08-25T05:16:54.532Z,100753.56
2022-08-25T05:19:22.874Z,100751.69
2022-08-25T05:21:50.603Z,100755.25
2022-08-25T05:24:18.339Z,100759.69
2022-08-25T05:26:46.092Z,100760.53
2022-08-25T05:29:14.437Z,100748.72
2022-08-25T05:31:47.122Z,100747.69
2022-08-25T05:34:18.917Z,100751.47
2022-08-25T05:36:46.765Z,100746.81
2022-08-25T05:39:14.554Z,100745.13
2022-08-25T05:41:42.268Z,100751.47
2022-08-25T05:44:10.037Z,100749.56
2022-08-25T05:46:37.801Z,100752.28
2022-08-25T05:49:05.511Z,100754.00
2022-08-25T05:51:33.239Z,100758.66
2022-08-25T05:54:00.967Z,100757.78
2022-08-25T05:56:28.725Z,100753.16
2022-08-25T05:58:56.411Z,100754.00
2022-08-25T06:01:43.361Z,100753.78
2022-08-25T06:04:12.765Z,100758.66
2022-08-25T06:06:40.649Z,100754.66
2022-08-25T06:09:08.885Z,100759.09
2022-08-25T06:11:36.559Z,100763.50
2022-08-25T06:14:04.727Z,100760.75
2022-08-25T06:16:33.043Z,100762.47
2022-08-25T06:22:06.189Z,100753.59
2022-08-25T06:24:34.263Z,100753.41
2022-08-25T06:27:01.966Z,100759.50
2022-08-25T06:29:29.642Z,100755.28
2022-08-25T06:31:57.441Z,100760.97
2022-08-25T06:34:25.149Z,100763.25
2022-08-25T06:36:52.829Z,100757.41
2022-08-25T06:39:20.551Z,100752.28
2022-08-25T06:41:48.272Z,100757.78
2022-08-25T06:44:15.957Z,100750.63
2022-08-25T06:46:43.724Z,100744.28
2022-08-25T06:49:11.537Z,100753.34
2022-08-25T06:51:39.212Z,100754.44
2022-08-25T06:54:06.908Z,100755.03
2022-08-25T06:56:34.645Z,100742.81
2022-08-25T06:59:02.399Z,100739.69
2022-08-25T07:01:31.839Z,100735.06
2022-08-25T07:03:59.858Z,100734.81
2022-08-25T07:06:27.608Z,100739.06
2022-08-25T07:08:55.270Z,100740.97
2022-08-25T07:11:22.941Z,100742.66
2022-08-25T07:13:50.678Z,100746.25
2022-08-25T07:16:18.422Z,100745.19
2022-08-25T07:18:46.261Z,100744.16
2022-08-25T07:21:13.995Z,100754.06
2022-08-25T07:23:41.729Z,100754.91
2022-08-25T07:26:15.852Z,100747.50
2022-08-25T07:31:59.653Z,100740.34
2022-08-25T07:37:47.804Z,100747.50
2022-08-25T07:40:14.413Z,100751.97
2022-08-25T07:42:42.135Z,100754.91
2022-08-25T07:45:10.865Z,100751.97
2022-08-25T07:47:38.684Z,100750.25
2022-08-25T07:50:06.925Z,100751.97
2022-08-25T07:52:34.696Z,100752.81
2022-08-25T07:55:02.717Z,100742.06
2022-08-25T07:57:30.509Z,100745.88
2022-08-25T07:59:58.740Z,100751.13
2022-08-25T08:02:26.622Z,100738.06
2022-08-25T08:04:54.381Z,100741.88
2022-08-25T08:07:22.912Z,100727.09
2022-08-25T08:10:00.377Z,100731.75
2022-08-25T08:12:38.843Z,100734.69
2022-08-25T08:15:10.274Z,100734.69
2022-08-25T08:17:39.211Z,100740.16
2022-08-25T08:20:08.888Z,100732.78
2022-08-25T08:22:36.612Z,100730.25
2022-08-25T08:25:04.306Z,100729.84
2022-08-25T08:27:36.255Z,100733.41
2022-08-25T08:30:04.175Z,100727.75
2022-08-25T08:32:46.473Z,100723.28
2022-08-25T08:35:24.786Z,100728.78
2022-08-25T08:37:53.884Z,100726.25
2022-08-25T08:40:21.846Z,100725.00
2022-08-25T08:42:48.933Z,100714.03
2022-08-25T08:45:17.028Z,100707.47
2022-08-25T08:47:45.455Z,100705.38
2022-08-25T08:50:13.178Z,100696.50
2022-08-25T08:52:41.380Z,100698.19
2022-08-25T08:55:10.300Z,100693.75
2022-08-25T08:57:38.292Z,100697.34
2022-08-25T09:00:06.013Z,100693.09
2022-08-25T09:02:50.584Z,100699.25
2022-08-25T09:05:21.036Z,100699.88
2022-08-25T09:07:48.833Z,100699.06
2022-08-25T09:10:22.385Z,100689.94
2022-08-25T09:12:51.285Z,100689.75
2022-08-25T09:15:19.106Z,100685.34
2022-08-25T09:17:54.503Z,100694.19
2022-08-25T09:20:22.724Z,100680.25
2022-08-25T09:22:51.661Z,100683.00
2022-08-25T09:25:39.622Z,100688.50
2022-08-25T09:28:09.572Z,100683.19
2022-08-25T09:30:37.312Z,100675.19
2022-08-25T09:33:05.418Z,100680.69
2022-08-25T09:35:33.442Z,100668.88
2022-08-25T09:38:02.432Z,100677.72
2022-08-25T09:40:30.322Z,100673.09
2022-08-25T09:42:58.657Z,100673.09
2022-08-25T09:45:26.582Z,100670.34
2022-08-25T09:47:54.308Z,100679.63
2022-08-25T09:50:22.100Z,100669.47
2022-08-25T09:53:10.194Z,100668.66
2022-08-25T09:55:39.432Z,100670.75
2022-08-25T09:58:09.500Z,100666.97
2022-08-25T10:00:37.401Z,100656.84
2022-08-25T10:03:05.959Z,100648.78
2022-08-25T10:05:37.134Z,100642.28
2022-08-25T10:08:06.744Z,100644.19
2022-08-25T10:10:34.595Z,100645.03
2022-08-25T10:13:03.668Z,100642.28
2022-08-25T10:15:34.157Z,100637.81
2022-08-25T10:18:01.919Z,100636.78
2022-08-25T10:20:33.051Z,100634.88
2022-08-25T10:23:03.272Z,100622.00
2022-08-25T10:25:31.092Z,100623.91
2022-08-25T10:27:58.827Z,100614.84
2022-08-25T10:30:26.552Z,100618.63
2022-08-25T10:32:55.583Z,100622.22
2022-08-25T10:35:23.715Z,100615.28
2022-08-25T10:37:51.829Z,100608.91
2022-08-25T10:40:19.637Z,100604.28
2022-08-25T10:42:47.410Z,100613.13
2022-08-25T10:45:32.585Z,100602.59
2022-08-25T10:48:00.398Z,100596.47
2022-08-25T10:50:29.380Z,100599.03
2022-08-25T10:52:57.084Z,100589.09
2022-08-25T10:55:24.941Z,100588.66
2022-08-25T10:57:52.922Z,100594.16
2022-08-25T11:00:22.436Z,100583.19
2022-08-25T11:02:50.726Z,100586.56
2022-08-25T11:05:24.567Z,100574.75
2022-08-25T11:07:52.754Z,100576.66
2022-08-25T11:10:20.484Z,100573.06
2022-08-25T11:12:48.220Z,100566.72
2022-08-25T11:15:15.974Z,100572.19
2022-08-25T11:17:44.483Z,100560.19
2022-08-25T11:20:19.431Z,100555.53
2022-08-25T11:22:54.400Z,100561.22
2022-08-25T11:25:22.187Z,100559.56
2022-08-25T11:27:49.923Z,100551.31
2022-08-25T11:30:17.805Z,100554.50
2022-08-25T11:32:46.572Z,100550.03
2022-08-25T11:35:14.856Z,100545.00
2022-08-25T11:37:42.886Z,100542.03
2022-08-25T11:40:11.762Z,100542.03
2022-08-25T11:42:43.063Z,100540.97
2022-08-25T11:45:11.471Z,100537.59
2022-08-25T11:47:39.209Z,100534.03
2022-08-25T11:50:06.984Z,100540.53
2022-08-25T11:52:35.121Z,100536.13
2022-08-25T11:55:02.967Z,100527.88
2022-08-25T11:57:33.270Z,100527.88
2022-08-25T12:00:00.997Z,100534.22
2022-08-25T12:02:28.793Z,100531.28
2022-08-25T12:04:56.695Z,100530.44
2022-08-25T12:07:24.506Z,100530.44
2022-08-25T12:09:53.818Z,100527.47
2022-08-25T12:12:21.623Z,100521.97
2022-08-25T12:14:49.417Z,100518.59
2022-08-25T12:17:17.154Z,100519.66
2022-08-25T12:19:44.954Z,100521.56
2022-08-25T12:22:12.690Z,100518.81
2022-08-25T12:24:40.461Z,100520.72
2022-08-25T12:27:15.099Z,100513.09
2022-08-25T12:29:42.839Z,100513.97
2022-08-25T12:32:10.635Z,100507.84
2022-08-25T12:34:38.357Z,100508.69
2022-08-25T12:37:06.626Z,100496.88
2022-08-25T12:39:34.397Z,100497.53
2022-08-25T12:42:03.277Z,100495.38
2022-08-25T12:44:31.073Z,100498.13
2022-08-25T12:46:58.780Z,100496.44
2022-08-25T12:49:30.563Z,100496.66
2022-08-25T12:51:59.110Z,100501.28
2022-08-25T12:54:27.319Z,100496.66
2022-08-25T12:56:55.171Z,100487.59
2022-08-25T12:59:22.991Z,100484.84
2022-08-25T13:01:50.833Z,100479.34
2022-08-25T13:04:18.682Z,100478.50
2022-08-25T13:06:46.703Z,100486.75
2022-08-25T13:09:14.576Z,100475.78
2022-08-25T13:11:43.270Z,100475.97
2022-08-25T13:14:12.592Z,100477.88
2022-08-25T13:16:40.698Z,100476.84
2022-08-25T13:19:08.407Z,100474.69
2022-08-25T13:21:37.233Z,100473.88
2022-08-25T13:24:05.272Z,100465.88
2022-08-25T13:26:33.615Z,100459.94
2022-08-25T13:29:01.384Z,100458.03
2022-08-25T13:31:29.872Z,100452.34
2022-08-25T13:33:58.017Z,100450.66
2022-08-25T13:36:51.063Z,100454.22
2022-08-25T13:39:45.561Z,100438.84
2022-08-25T13:42:09.621Z,100437.38
2022-08-25T13:44:40.171Z,100436.28
2022-08-25T13:47:19.608Z,100429.97
2022-08-25T13:49:48.542Z,100441.59
2022-08-25T13:52:16.306Z,100427.22
2022-08-25T13:54:46.824Z,100422.81
2022-08-25T13:57:14.536Z,100421.97
2022-08-25T13:59:46.493Z,100426.59
2022-08-25T14:02:19.340Z,100421.09
2022-08-25T14:04:51.144Z,100421.09
2022-08-25T14:07:20.411Z,100422.81
2022-08-25T14:09:48.313Z,100416.47
2022-08-25T14:12:16.091Z,100408.25
2022-08-25T14:14:44.055Z,100409.09
2022-08-25T14:17:28.623Z,100406.34
2022-08-25T14:19:59.479Z,100399.16
2022-08-25T14:22:27.215Z,100395.38
2022-08-25T14:24:54.928Z,100384.41
2022-08-25T14:27:22.632Z,100390.72
2022-08-25T14:29:52.769Z,100379.56
2022-08-25T14:32:20.761Z,100390.72
2022-08-25T14:34:48.498Z,100386.06
2022-08-25T14:37:16.641Z,100384.41
2022-08-25T14:39:44.334Z,100384.41
2022-08-25T14:42:12.310Z,100382.28
2022-08-25T14:44:40.065Z,100384.41
2022-08-25T14:47:08.117Z,100382.28
2022-08-25T14:49:35.823Z,100373.19
2022-08-25T14:52:03.503Z,100378.69
2022-08-25T14:54:33.650Z,100374.91
2022-08-25T14:57:03.647Z,100367.72
2022-08-25T14:59:36.303Z,100360.56
2022-08-25T15:02:13.021Z,100358.66
2022-08-25T15:04:42.406Z,100350.66
2022-08-25T15:07:30.636Z,100350.66
2022-08-25T15:09:59.792Z,100350.66
2022-08-25T15:12:46.760Z,100355.06
2022-08-25T15:15:14.908Z,100361.63
2022-08-25T15:17:44.567Z,100352.31
2022-08-25T15:20:12.492Z,100348.50
2022-08-25T15:22:41.751Z,100334.78
2022-08-25T15:25:09.567Z,100331.22
2022-08-25T15:27:37.324Z,100335.03
2022-08-25T15:30:05.424Z,100325.72
2022-08-25T15:32:33.159Z,100329.53
2022-08-25T15:35:01.247Z,100318.13
2022-08-25T15:37:29.016Z,100319.81
2022-08-25T15:39:57.624Z,100323.41
2022-08-25T15:42:25.968Z,100324.44
2022-08-25T15:44:54.603Z,100320.88
2022-08-25T15:47:24.140Z,100314.31
2022-08-25T15:49:53.289Z,100316.47
2022-08-25T15:52:21.100Z,100318.34
2022-08-25T15:54:48.924Z,100314.75
2022-08-25T15:57:24.360Z,100319.41
2022-08-25T15:59:53.271Z,100314.75
2022-08-25T16:02:21.233Z,100315.00
2022-08-25T16:04:50.817Z,100321.06
2022-08-25T16:07:18.524Z,100314.75
2022-08-25T16:09:46.578Z,100317.50
2022-08-25T16:12:14.342Z,100303.56
2022-08-25T16:14:42.260Z,100310.97
2022-08-25T16:17:10.360Z,100298.72
2022-08-25T16:19:39.273Z,100304.22
2022-08-25T16:22:08.924Z,100310.53
2022-08-25T16:24:38.931Z,100311.56
2022-08-25T16:27:11.528Z,100306.09
2022-08-25T16:29:39.689Z,100306.31
2022-08-25T16:32:07.453Z,100298.94
2022-08-25T16:34:35.378Z,100294.50
2022-08-25T16:37:03.745Z,100295.34
2022-08-25T16:39:32.403Z,100300.84
2022-08-25T16:42:00.272Z,100295.34
2022-08-25T16:44:28.956Z,100298.94
2022-08-25T16:46:57.625Z,100302.75
2022-08-25T16:49:25.532Z,100301.88
2022-08-25T16:51:57.627Z,100300.00
2022-08-25T16:54:43.391Z,100308.22
2022-08-25T16:57:11.129Z,100302.94
2022-08-25T16:59:38.984Z,100303.78
2022-08-25T17:02:07.085Z,100303.78
2022-08-25T17:04:34.825Z,100307.34
2022-08-25T17:07:02.613Z,100309.06
2022-08-25T17:09:30.722Z,100298.28
2022-08-25T17:11:58.462Z,100309.91
2022-08-25T17:14:26.643Z,100302.75
2022-08-25T17:16:55.524Z,100302.75
2022-08-25T17:19:24.927Z,100296.19
2022-08-25T17:21:54.524Z,100296.38
2022-08-25T17:24:29.545Z,100292.81
2022-08-25T17:26:59.371Z,100297.47
2022-08-25T17:29:27.140Z,100302.09
2022-08-25T17:31:54.897Z,100299.38
2022-08-25T17:34:23.287Z,100298.28
2022-08-25T17:36:51.238Z,100304.63
2022-08-25T17:39:22.253Z,100304.63
2022-08-25T17:41:50.686Z,100310.09
2022-08-25T17:44:18.404Z,100309.28
2022-08-25T17:46:48.011Z,100303.78
2022-08-25T17:49:16.086Z,100309.28
2022-08-25T17:51:43.770Z,100310.34
2022-08-25T17:54:13.024Z,100313.09
2022-08-25T17:56:40.739Z,100314.75
2022-08-25T17:59:08.539Z,100327.44
2022-08-25T18:01:40.614Z,100319.19
2022-08-25T18:04:15.632Z,100326.56
2022-08-25T18:06:45.848Z,100330.38
2022-08-25T18:09:14.077Z,100332.06
2022-08-25T18:11:42.616Z,100336.69
2022-08-25T18:14:11.325Z,100330.38
2022-08-25T18:16:39.129Z,100333.97
2022-08-25T18:19:09.822Z,100334.78
2022-08-25T18:21:38.159Z,100336.69
2022-08-25T18:24:05.967Z,100337.53
2022-08-25T18:26:33.704Z,100343.03
2022-08-25T18:29:01.720Z,100342.19
2022-08-25T18:31:29.524Z,100342.19
2022-08-25T18:33:58.105Z,100349.38
2022-08-25T18:36:25.850Z,100352.31
2022-08-25T18:39:11.667Z,100346.84
2022-08-25T18:41:41.472Z,100346.00
2022-08-25T18:44:10.542Z,100353.16
2022-08-25T18:46:39.512Z,100353.16
2022-08-25T18:49:07.303Z,100352.13
2022-08-25T18:51:36.269Z,100350.22
2022-08-25T18:54:04.230Z,100362.03
2022-08-25T18:56:32.096Z,100365.59
2022-08-25T18:59:00.627Z,100358.22
2022-08-25T19:01:28.666Z,100363.69
2022-08-25T19:03:56.476Z,100365.59
2022-08-25T19:06:24.188Z,100365.84
2022-08-25T19:08:51.936Z,100370.47
2022-08-25T19:11:22.276Z,100364.13
2022-08-25T19:13:50.356Z,100369.63
2022-08-25T19:16:20.363Z,100363.28
2022-08-25T19:18:48.797Z,100359.72
2022-08-25T19:21:22.859Z,100355.28
2022-08-25T19:23:50.742Z,100358.00
2022-08-25T19:26:19.112Z,100355.06
2022-08-25T19:28:48.994Z,100357.81
2022-08-25T19:31:18.059Z,100359.72
2022-08-25T19:33:46.124Z,100358.00
2022-08-25T19:36:13.909Z,100361.63
2022-08-25T19:38:41.674Z,100353.41
2022-08-25T19:41:14.285Z,100358.66
2022-08-25T19:43:55.713Z,100357.81
2022-08-25T19:46:25.109Z,100362.47
2022-08-25T19:48:52.832Z,100355.28
2022-08-25T19:51:21.737Z,100356.97
2022-08-25T19:53:54.832Z,100354.22
2022-08-25T19:56:24.131Z,100357.81
2022-08-25T19:58:51.843Z,100369.63
2022-08-25T20:01:19.963Z,100362.47
2022-08-25T20:03:47.821Z,100359.72
2022-08-25T20:06:16.105Z,100357.81
2022-08-25T20:08:43.973Z,100364.13
2022-08-25T20:11:11.973Z,100358.66
2022-08-25T20:13:39.722Z,100367.94
2022-08-25T20:16:07.773Z,100363.28
2022-08-25T20:18:36.361Z,100362.47
2022-08-25T20:21:04.186Z,100363.28
2022-08-25T20:23:49.718Z,100366.88
2022-08-25T20:26:17.455Z,100365.19
2022-08-25T20:28:46.489Z,100364.38
2022-08-25T20:31:14.254Z,100360.56
2022-08-25T20:33:42.037Z,100362.47
2022-08-25T20:36:11.208Z,100370.69
2022-08-25T20:38:41.095Z,100369.63
2022-08-25T20:41:10.395Z,100362.47
2022-08-25T20:43:39.178Z,100362.47
2022-08-25T20:46:07.103Z,100358.00
2022-08-25T20:48:35.102Z,100365.19
2022-08-25T20:51:02.985Z,100360.56
2022-08-25T20:53:30.697Z,100364.38
2022-08-25T20:55:58.656Z,100354.22
2022-08-25T20:58:26.556Z,100362.47
2022-08-25T21:00:54.595Z,100356.13
2022-08-25T21:03:22.295Z,100364.38
2022-08-25T21:05:53.581Z,100356.13
2022-08-25T21:08:21.993Z,100369.84
2022-08-25T21:10:51.654Z,100368.78
2022-08-25T21:13:19.473Z,100370.69
2022-08-25T21:15:48.627Z,100374.47
2022-08-25T21:18:16.449Z,100378.91
2022-08-25T21:20:44.235Z,100370.69
2022-08-25T21:23:11.977Z,100367.94
2022-08-25T21:25:41.030Z,100372.59
2022-08-25T21:28:09.074Z,100365.19
2022-08-25T21:30:36.805Z,100358.88
2022-08-25T21:33:04.722Z,100366.25
2022-08-25T21:35:32.571Z,100366.25
2022-08-25T21:38:01.897Z,100368.97
2022-08-25T21:40:30.769Z,100368.97
2022-08-25T21:42:58.604Z,100367.09
2022-08-25T21:45:26.438Z,100365.19
2022-08-25T21:48:01.014Z,100367.09
2022-08-25T21:50:28.853Z,100367.09
2022-08-25T21:52:56.655Z,100360.75
2022-08-25T21:55:24.432Z,100365.19
2022-08-25T21:57:52.641Z,100355.28
2022-08-25T22:00:21.338Z,100355.28
2022-08-25T22:02:49.330Z,100360.75
2022-08-25T22:05:17.096Z,100360.75
2022-08-25T22:07:45.130Z,100358.00
2022-08-25T22:10:16.753Z,100359.91
2022-08-25T22:12:45.934Z,100359.09
2022-08-25T22:15:15.578Z,100358.00
2022-08-25T22:17:43.329Z,100360.75
2022-08-25T22:20:11.129Z,100358.88
2022-08-25T22:22:38.855Z,100357.19
2022-08-25T22:25:06.670Z,100349.78
2022-08-25T22:27:35.877Z,100349.78
2022-08-25T22:30:06.261Z,100347.03
2022-08-25T22:32:34.072Z,100345.56
2022-08-25T22:35:01.773Z,100350.22
2022-08-25T22:37:30.405Z,100344.72
2022-08-25T22:39:58.282Z,100346.63
2022-08-25T22:42:26.322Z,100339.25
2022-08-25T22:44:55.053Z,100343.91
2022-08-25T22:47:22.751Z,100339.47
2022-08-25T22:49:52.352Z,100344.34
2022-08-25T22:52:20.072Z,100346.00
2022-08-25T22:54:59.719Z,100338.84
2022-08-25T22:57:27.473Z,100332.53
2022-08-25T22:59:56.567Z,100333.38
2022-08-25T23:02:24.296Z,100336.09
2022-08-25T23:04:52.264Z,100336.94
2022-08-25T23:07:24.027Z,100324.94
2022-08-25T23:09:53.059Z,100323.03
2022-08-25T23:12:20.840Z,100325.53
2022-08-25T23:14:51.545Z,100314.78
2022-08-25T23:17:19.264Z,100316.69
2022-08-25T23:19:47.517Z,100314.16
2022-08-25T23:22:16.178Z,100313.97
2022-08-25T23:24:44.241Z,100305.50
2022-08-25T23:27:12.014Z,100302.56
2022-08-25T23:29:39.748Z,100311.81
2022-08-25T23:32:07.842Z,100298.34
2022-08-25T23:34:36.354Z,100285.66
2022-08-25T23:37:04.163Z,100287.13
2022-08-25T23:39:31.885Z,100284.19
2022-08-25T23:41:59.627Z,100284.19
2022-08-25T23:44:27.615Z,100289.44
2022-08-25T23:46:55.418Z,100289.44
2022-08-25T23:49:25.877Z,100285.84
2022-08-25T23:51:56.163Z,100282.28
2022-08-25T23:54:31.571Z,100281.19
2022-08-25T23:56:59.549Z,100280.38
2022-08-25T23:59:27.442Z,100278.47
